createdAt,value
2023-01-09T00:00:00.483Z,42.95
2023-01-09T00:03:13.338Z,45.35
2023-01-09T00:06:25.622Z,43.40
2023-01-09T00:09:38.004Z,41.25
2023-01-09T00:12:50.333Z,39.88
2023-01-09T00:16:02.900Z,43.63
2023-01-09T00:19:15.748Z,43.18
2023-01-09T00:22:28.168Z,43.80
2023-01-09T00:25:42.508Z,42.03
2023-01-09T00:28:56.876Z,40.93
2023-01-09T00:32:10.823Z,40.93
2023-01-09T00:35:24.738Z,40.30
2023-01-09T00:38:37.504Z,42.93
2023-01-09T00:41:52.996Z,41.73
2023-01-09T00:45:09.601Z,40.80
2023-01-09T00:48:26.883Z,41.00
2023-01-09T00:51:39.194Z,40.60
2023-01-09T00:54:52.342Z,42.28
2023-01-09T00:58:05.051Z,39.40
2023-01-09T01:01:17.375Z,39.58
2023-01-09T01:04:44.230Z,40.48
2023-01-09T01:07:56.449Z,38.75
2023-01-09T01:11:13.174Z,39.40
2023-01-09T01:14:25.213Z,39.93
2023-01-09T01:17:37.371Z,38.13
2023-01-09T01:20:50.952Z,38.33
2023-01-09T01:24:03.056Z,37.13
2023-01-09T01:27:15.097Z,40.78
2023-01-09T01:30:28.071Z,37.68
2023-01-09T01:33:41.275Z,36.83
2023-01-09T01:36:53.355Z,36.48
2023-01-09T01:40:05.726Z,37.35
2023-01-09T01:43:19.910Z,38.30
2023-01-09T01:46:32.668Z,39.50
2023-01-09T01:49:45.406Z,38.70
2023-01-09T01:53:03.896Z,35.65
2023-01-09T01:56:20.709Z,37.35
2023-01-09T01:59:37.551Z,38.78
2023-01-09T02:02:49.973Z,37.48
2023-01-09T02:06:04.463Z,37.53
2023-01-09T02:09:19.158Z,36.68
2023-01-09T02:12:33.574Z,34.40
2023-01-09T02:16:02.107Z,37.00
2023-01-09T02:19:25.375Z,37.70
2023-01-09T02:22:44.761Z,37.60
2023-01-09T02:26:26.098Z,38.28
2023-01-09T02:30:28.369Z,36.80
2023-01-09T02:33:52.419Z,36.10
2023-01-09T02:37:09.392Z,35.43
2023-01-09T02:43:38.610Z,37.25
2023-01-09T02:46:51.199Z,37.23
2023-01-09T02:50:06.230Z,34.45
2023-01-09T02:53:41.290Z,36.13
2023-01-09T02:57:12.507Z,37.03
2023-01-09T03:00:34.815Z,34.80
2023-01-09T03:03:53.388Z,32.35
2023-01-09T03:07:11.610Z,35.80
2023-01-09T03:10:28.390Z,36.10
2023-01-09T03:13:46.419Z,35.60
2023-01-09T03:17:03.212Z,34.13
2023-01-09T03:20:20.765Z,34.53
2023-01-09T03:23:32.928Z,33.23
2023-01-09T03:26:45.395Z,36.58
2023-01-09T03:29:57.988Z,37.73
2023-01-09T03:33:10.543Z,37.10
2023-01-09T03:36:25.065Z,36.65
2023-01-09T03:39:37.571Z,34.05
2023-01-09T03:42:52.229Z,32.88
2023-01-09T03:46:04.647Z,36.98
2023-01-09T03:49:17.566Z,38.38
2023-01-09T03:52:29.654Z,37.03
2023-01-09T03:55:41.828Z,35.30
2023-01-09T03:58:54.486Z,36.30
2023-01-09T04:02:06.735Z,36.43
2023-01-09T04:05:19.344Z,36.55
2023-01-09T04:08:31.650Z,36.15
2023-01-09T04:11:43.706Z,38.00
2023-01-09T04:14:55.979Z,34.50
2023-01-09T04:18:08.633Z,34.95
2023-01-09T04:21:20.649Z,36.45
2023-01-09T04:24:32.796Z,40.83
2023-01-09T04:27:45.208Z,36.83
2023-01-09T04:30:57.355Z,37.95
2023-01-09T04:34:09.565Z,35.95
2023-01-09T04:37:22.004Z,37.60
2023-01-09T04:40:34.141Z,35.73
2023-01-09T04:43:46.253Z,36.50
2023-01-09T04:46:58.883Z,39.05
2023-01-09T04:50:12.610Z,34.65
2023-01-09T04:53:24.777Z,34.03
2023-01-09T04:56:37.102Z,33.90
2023-01-09T04:59:49.558Z,34.93
2023-01-09T05:03:02.874Z,36.85
2023-01-09T05:06:15.551Z,39.53
2023-01-09T05:09:27.986Z,38.63
2023-01-09T05:12:40.472Z,36.55
2023-01-09T05:15:52.572Z,36.53
2023-01-09T05:19:04.727Z,38.10
2023-01-09T05:22:16.926Z,39.68
2023-01-09T05:25:29.076Z,40.58
2023-01-09T05:28:41.276Z,38.93
2023-01-09T05:31:53.494Z,35.88
2023-01-09T05:35:05.746Z,36.05
2023-01-09T05:38:17.833Z,35.20
2023-01-09T05:41:30.077Z,37.35
2023-01-09T05:44:42.376Z,36.13
2023-01-09T05:47:54.425Z,35.43
2023-01-09T05:51:06.745Z,33.48
2023-01-09T05:54:19.003Z,32.98
2023-01-09T05:57:31.263Z,35.03
2023-01-09T06:00:43.480Z,35.58
2023-01-09T06:03:55.576Z,35.25
2023-01-09T06:07:07.689Z,33.80
2023-01-09T06:10:22.027Z,32.70
2023-01-09T06:13:34.297Z,33.48
2023-01-09T06:16:46.494Z,34.25
2023-01-09T06:19:58.618Z,34.50
2023-01-09T06:23:12.205Z,35.25
2023-01-09T06:26:25.119Z,34.80
2023-01-09T06:29:37.221Z,33.93
2023-01-09T06:32:49.352Z,33.73
2023-01-09T06:36:01.505Z,33.63
2023-01-09T06:39:14.108Z,35.65
2023-01-09T06:42:26.517Z,38.43
2023-01-09T06:45:38.589Z,35.58
2023-01-09T06:48:50.649Z,33.23
2023-01-09T06:52:04.874Z,34.48
2023-01-09T06:55:17.793Z,34.30
2023-01-09T06:58:29.995Z,33.85
2023-01-09T07:01:43.414Z,26.80
2023-01-09T07:04:55.972Z,30.98
2023-01-09T07:08:08.250Z,26.50
2023-01-09T07:11:20.303Z,29.55
2023-01-09T07:14:32.511Z,27.28
2023-01-09T07:17:44.756Z,29.75
2023-01-09T07:20:57.223Z,27.80
2023-01-09T07:24:09.597Z,29.55
2023-01-09T07:27:22.170Z,27.13
2023-01-09T07:30:34.196Z,111.75
2023-01-09T07:33:46.240Z,37.45
2023-01-09T07:36:58.365Z,31.03
2023-01-09T07:40:12.500Z,24.73
2023-01-09T07:43:24.877Z,24.38
2023-01-09T07:46:37.382Z,16.90
2023-01-09T07:49:49.404Z,13.98
2023-01-09T07:53:01.556Z,13.58
2023-01-09T07:56:14.831Z,14.05
2023-01-09T07:59:27.871Z,11.05
2023-01-09T08:02:40.136Z,12.33
2023-01-09T08:05:53.752Z,11.95
2023-01-09T08:09:05.840Z,12.78
2023-01-09T08:12:17.909Z,12.13
2023-01-09T08:15:30.925Z,12.88
2023-01-09T08:18:42.867Z,12.68
2023-01-09T08:21:55.014Z,13.88
2023-01-09T08:25:06.845Z,12.60
2023-01-09T08:28:18.919Z,13.23
2023-01-09T08:31:30.851Z,11.43
2023-01-09T08:34:42.913Z,10.85
2023-01-09T08:37:56.068Z,9.53
2023-01-09T08:41:09.971Z,9.55
2023-01-09T08:44:36.544Z,12.43
2023-01-09T08:47:48.457Z,10.30
2023-01-09T08:51:00.224Z,11.88
2023-01-09T08:54:12.702Z,11.10
2023-01-09T08:57:24.517Z,10.88
2023-01-09T09:00:36.961Z,8.45
2023-01-09T09:03:48.793Z,10.20
2023-01-09T09:07:00.576Z,10.30
2023-01-09T09:10:15.031Z,10.68
2023-01-09T09:13:26.801Z,11.00
2023-01-09T09:16:38.665Z,10.98
2023-01-09T09:19:50.707Z,10.40
2023-01-09T09:23:02.709Z,10.80
2023-01-09T09:26:14.959Z,9.88
2023-01-09T09:29:26.817Z,9.43
2023-01-09T09:32:39.153Z,8.58
2023-01-09T09:35:51.515Z,9.50
2023-01-09T09:39:03.420Z,9.98
2023-01-09T09:43:04.429Z,9.08
2023-01-09T09:46:22.817Z,19.40
2023-01-09T09:49:39.879Z,11.05
2023-01-09T09:52:57.326Z,19.95
2023-01-09T09:56:10.308Z,23.18
2023-01-09T09:59:26.927Z,22.20
2023-01-09T10:02:46.617Z,23.58
2023-01-09T10:06:00.456Z,24.95
2023-01-09T10:09:19.769Z,21.95
2023-01-09T10:12:37.232Z,22.23
2023-01-09T10:15:55.816Z,21.08
2023-01-09T10:19:19.459Z,21.88
2023-01-09T10:22:38.027Z,19.18
2023-01-09T10:25:55.596Z,15.85
2023-01-09T10:29:37.229Z,17.33
2023-01-09T10:33:01.400Z,14.65
2023-01-09T10:36:36.126Z,14.35
2023-01-09T10:39:53.591Z,10.63
2023-01-09T10:43:11.491Z,7.90
2023-01-09T10:46:29.296Z,6.03
2023-01-09T10:49:44.432Z,4.98
2023-01-09T10:52:59.349Z,4.93
2023-01-09T10:56:18.955Z,4.53
2023-01-09T10:59:31.578Z,4.03
2023-01-09T11:02:43.673Z,4.00
2023-01-09T11:06:00.744Z,4.63
2023-01-09T11:09:14.912Z,4.70
2023-01-09T11:12:34.106Z,5.18
2023-01-09T11:15:47.543Z,4.65
2023-01-09T11:19:02.523Z,5.03
2023-01-09T11:22:21.593Z,4.20
2023-01-09T11:25:34.844Z,5.63
2023-01-09T11:28:46.752Z,5.88
2023-01-09T11:32:02.180Z,7.75
2023-01-09T11:35:24.001Z,7.95
2023-01-09T11:38:40.172Z,7.35
2023-01-09T11:41:52.509Z,6.97
2023-01-09T11:45:06.831Z,7.20
2023-01-09T11:48:45.608Z,8.05
2023-01-09T11:52:20.480Z,6.03
2023-01-09T11:55:41.934Z,5.88
2023-01-09T11:58:47.428Z,5.83
2023-01-09T12:02:32.556Z,6.30
2023-01-09T12:05:52.439Z,4.98
2023-01-09T12:09:08.802Z,5.10
2023-01-09T12:12:29.337Z,5.93
2023-01-09T12:15:46.320Z,5.43
2023-01-09T12:19:09.143Z,5.20
2023-01-09T12:22:27.631Z,4.90
2023-01-09T12:25:52.371Z,4.20
2023-01-09T12:29:25.491Z,3.38
2023-01-09T12:32:52.143Z,2.83
2023-01-09T12:36:21.839Z,2.53
2023-01-09T12:39:43.419Z,2.08
2023-01-09T12:43:02.457Z,2.30
2023-01-09T12:46:22.697Z,2.00
2023-01-09T12:49:41.189Z,2.05
2023-01-09T12:52:59.954Z,2.20
2023-01-09T12:56:17.065Z,2.08
2023-01-09T13:02:51.677Z,1.80
2023-01-09T13:06:04.634Z,2.75
2023-01-09T13:09:26.325Z,21.35
2023-01-09T13:12:43.073Z,6.75
2023-01-09T13:15:59.565Z,6.98
2023-01-09T13:19:19.342Z,5.98
2023-01-09T13:22:34.044Z,5.40
2023-01-09T13:25:54.094Z,5.70
2023-01-09T13:29:14.070Z,5.80
2023-01-09T13:32:43.228Z,6.83
2023-01-09T13:36:02.929Z,6.90
2023-01-09T13:39:25.477Z,8.90
2023-01-09T13:42:43.378Z,6.95
2023-01-09T13:45:58.847Z,9.15
2023-01-09T13:49:13.655Z,7.45
2023-01-09T13:52:43.375Z,7.33
2023-01-09T13:56:14.218Z,7.48
2023-01-09T13:59:35.561Z,7.85
2023-01-09T14:03:21.333Z,6.40
2023-01-09T14:06:33.373Z,8.73
2023-01-09T14:09:49.475Z,10.05
2023-01-09T14:13:03.023Z,11.03
2023-01-09T14:16:23.732Z,11.25
2023-01-09T14:19:44.774Z,11.88
2023-01-09T14:23:28.147Z,10.93
2023-01-09T14:26:25.516Z,12.68
2023-01-09T14:29:54.257Z,12.18
2023-01-09T14:33:09.204Z,12.35
2023-01-09T14:36:28.537Z,11.95
2023-01-09T14:39:42.562Z,12.55
2023-01-09T14:42:58.935Z,12.05
2023-01-09T14:46:19.708Z,11.03
2023-01-09T14:49:38.393Z,11.73
2023-01-09T14:52:56.095Z,10.93
2023-01-09T14:56:12.005Z,12.58
2023-01-09T14:59:24.540Z,12.65
2023-01-09T15:02:41.317Z,11.83
2023-01-09T15:05:56.064Z,11.38
2023-01-09T15:09:12.828Z,11.45
2023-01-09T15:12:28.350Z,11.50
2023-01-09T15:15:41.657Z,11.33
2023-01-09T15:18:57.788Z,13.03
2023-01-09T15:22:16.485Z,13.30
2023-01-09T15:25:40.226Z,12.20
2023-01-09T15:28:50.832Z,13.75
2023-01-09T15:32:08.327Z,12.80
2023-01-09T15:35:22.381Z,14.60
2023-01-09T15:38:37.699Z,15.65
2023-01-09T15:42:06.543Z,15.35
2023-01-09T15:45:32.117Z,16.00
2023-01-09T15:48:44.452Z,16.60
2023-01-09T15:51:57.489Z,17.23
2023-01-09T15:55:21.582Z,16.78
2023-01-09T15:58:36.773Z,16.03
2023-01-09T16:01:51.459Z,16.33
2023-01-09T16:05:04.208Z,13.43
2023-01-09T16:08:34.601Z,15.30
2023-01-09T16:11:52.124Z,14.95
2023-01-09T16:15:06.724Z,13.35
2023-01-09T16:18:31.396Z,11.53
2023-01-09T16:21:45.052Z,8.40
2023-01-09T16:24:59.169Z,6.85
2023-01-09T16:28:30.219Z,5.95
2023-01-09T16:31:42.668Z,5.43
2023-01-09T16:35:05.675Z,4.93
2023-01-09T16:38:21.158Z,4.50
2023-01-09T16:41:47.512Z,4.18
2023-01-09T16:45:00.367Z,3.50
2023-01-09T16:48:20.471Z,4.05
2023-01-09T16:51:33.024Z,4.58
2023-01-09T16:54:46.972Z,4.35
2023-01-09T16:57:59.597Z,4.60
2023-01-09T17:01:13.562Z,5.78
2023-01-09T17:04:28.251Z,5.10
2023-01-09T17:07:40.719Z,6.05
2023-01-09T17:10:52.630Z,5.75
2023-01-09T17:14:06.199Z,5.83
2023-01-09T17:17:19.962Z,5.58
2023-01-09T17:20:32.961Z,6.53
2023-01-09T17:23:44.879Z,5.90
2023-01-09T17:27:12.914Z,6.20
2023-01-09T17:30:26.755Z,6.38
2023-01-09T17:33:39.839Z,6.48
2023-01-09T17:36:53.026Z,6.68
2023-01-09T17:40:05.534Z,6.35
2023-01-09T17:43:19.064Z,6.58
2023-01-09T17:46:36.415Z,7.43
2023-01-09T17:49:48.866Z,7.00
2023-01-09T17:53:00.911Z,7.95
2023-01-09T17:56:15.773Z,8.50
2023-01-09T17:59:29.342Z,7.83
2023-01-09T18:02:41.544Z,7.75
2023-01-09T18:05:53.886Z,8.23
2023-01-09T18:09:06.708Z,8.45
2023-01-09T18:12:19.420Z,9.40
2023-01-09T18:15:31.478Z,9.15
2023-01-09T18:18:44.950Z,9.35
2023-01-09T18:21:59.056Z,8.45
2023-01-09T18:25:13.254Z,9.60
2023-01-09T18:28:25.723Z,9.95
2023-01-09T18:31:38.064Z,15.15
2023-01-09T18:34:50.244Z,12.85
2023-01-09T18:38:02.412Z,9.88
2023-01-09T18:41:14.704Z,9.58
2023-01-09T18:44:27.904Z,10.20
2023-01-09T18:47:39.814Z,10.95
2023-01-09T18:50:52.291Z,11.23
2023-01-09T18:54:04.768Z,11.15
2023-01-09T18:57:16.885Z,12.38
2023-01-09T19:00:29.595Z,12.73
2023-01-09T19:03:42.054Z,12.78
2023-01-09T19:06:56.199Z,12.80
2023-01-09T19:10:09.143Z,12.30
2023-01-09T19:13:21.129Z,12.28
2023-01-09T19:16:33.240Z,11.75
2023-01-09T19:19:45.679Z,12.45
2023-01-09T19:22:58.156Z,12.95
2023-01-09T19:26:13.509Z,13.50
2023-01-09T19:29:25.715Z,13.38
2023-01-09T19:32:39.923Z,13.90
2023-01-09T19:35:56.069Z,13.33
2023-01-09T19:39:10.194Z,14.10
2023-01-09T19:42:23.601Z,14.10
2023-01-09T19:45:35.682Z,13.80
2023-01-09T19:48:48.109Z,14.00
2023-01-09T19:52:01.187Z,13.25
2023-01-09T19:55:15.017Z,14.65
2023-01-09T19:58:27.869Z,16.35
2023-01-09T20:01:42.710Z,15.68
2023-01-09T20:04:55.459Z,15.18
2023-01-09T20:08:08.633Z,14.88
2023-01-09T20:11:21.744Z,15.15
2023-01-09T20:14:36.085Z,15.43
2023-01-09T20:17:48.338Z,15.58
2023-01-09T20:21:00.901Z,16.38
2023-01-09T20:24:15.322Z,14.73
2023-01-09T20:27:27.376Z,15.78
2023-01-09T20:30:39.442Z,15.40
2023-01-09T20:33:53.032Z,15.88
2023-01-09T20:37:05.408Z,17.20
2023-01-09T20:40:19.273Z,16.95
2023-01-09T20:43:32.055Z,16.78
2023-01-09T20:46:47.454Z,17.75
2023-01-09T20:49:59.895Z,16.35
2023-01-09T20:53:12.522Z,16.35
2023-01-09T20:56:24.858Z,17.50
2023-01-09T20:59:37.134Z,18.18
2023-01-09T21:02:49.456Z,17.83
2023-01-09T21:06:01.869Z,16.80
2023-01-09T21:09:14.626Z,16.50
2023-01-09T21:12:31.886Z,16.70
2023-01-09T21:15:45.219Z,18.15
2023-01-09T21:18:58.761Z,18.05
2023-01-09T21:22:11.189Z,19.28
2023-01-09T21:25:23.582Z,16.93
2023-01-09T21:28:37.958Z,18.43
2023-01-09T21:31:50.280Z,16.20
2023-01-09T21:35:04.919Z,18.28
2023-01-09T21:38:17.182Z,20.38
2023-01-09T21:41:43.433Z,19.48
2023-01-09T21:45:10.041Z,20.10
2023-01-09T21:48:23.634Z,19.30
2023-01-09T21:51:37.991Z,19.75
2023-01-09T21:54:50.742Z,20.40
2023-01-09T21:58:04.289Z,19.10
2023-01-09T22:01:16.553Z,19.53
2023-01-09T22:04:33.480Z,20.80
2023-01-09T22:07:45.799Z,20.93
2023-01-09T22:11:04.667Z,20.20
2023-01-09T22:14:19.694Z,20.60
2023-01-09T22:17:31.904Z,22.58
2023-01-09T22:20:44.162Z,21.33
2023-01-09T22:23:57.552Z,22.23
2023-01-09T22:27:09.823Z,20.78
2023-01-09T22:30:23.208Z,20.38
2023-01-09T22:33:35.574Z,21.98
2023-01-09T22:36:48.346Z,22.78
2023-01-09T22:40:00.548Z,20.40
2023-01-09T22:43:14.825Z,19.75
2023-01-09T22:46:27.269Z,20.58
2023-01-09T22:49:52.460Z,21.45
2023-01-09T22:52:53.640Z,21.45
2023-01-09T22:56:08.441Z,23.38
2023-01-09T22:59:20.567Z,23.25
2023-01-09T23:02:32.837Z,23.55
2023-01-09T23:05:45.285Z,22.50
2023-01-09T23:08:58.503Z,23.20
2023-01-09T23:12:11.558Z,23.95
2023-01-09T23:15:24.143Z,24.28
2023-01-09T23:18:36.796Z,23.35
2023-01-09T23:21:49.599Z,21.98
2023-01-09T23:25:01.702Z,22.40
2023-01-09T23:28:14.037Z,23.00
2023-01-09T23:31:26.457Z,22.90
2023-01-09T23:34:39.482Z,23.30
2023-01-09T23:37:51.643Z,25.80
2023-01-09T23:41:04.626Z,22.78
2023-01-09T23:44:16.849Z,23.43
2023-01-09T23:47:30.673Z,22.93
2023-01-09T23:50:43.881Z,22.03
2023-01-09T23:53:56.173Z,21.80
2023-01-09T23:57:08.765Z,21.65
